Página principal
METAR-TAF:

METAR-TAF

Aeroportos :

Belize, Belize

Aeroporto Internacional Philip S. W. Goldson

latitude: 17-32N, longitude: 088-18W, altura: 5 m

Observação actual do tempo

O boletim foi feito há 24 minutos, às 15:00 UTC
Vento 5 kt de noroeste
Temperatura 20°C
Humidade 73%
Pressão 1023 hPa
Visibilidade 10 km ou mais
Nuvens fragmentadasa uma altura de 4800 ft

METAR: MZBZ 161500Z 32005KT 9999 BKN048 20/15 A3021 Q1023 NOSIG

Hora: 09:24 (15:24 UTC)

Previsão

O boletim foi feito há 4 horas e 29 minutos, às 10:55 UTC
Previsão válida de 16 às 12 UTC a 17 às 12 UTC
Vento 8 kt de norte
Visibilidade 10 km ou mais
Poucas nuvensa uma altura de 2200 ft
Nuvens dispersasa uma altura de 4500 ft

TAF: MZBZ 161055Z 1612/1712 35008KT 9999 FEW022 SCT045

Observações e previsões do tempo de mais de 4000 aeroportos (mensagens METAR e TAF).

As estações disponíveis são os pontos amarelos e vermelhos sobre o mapa.

Mova o rato sobre o mapa para ver o nome da estação.

Depois clique no ponto para visualizar as observações e previsões meteorológicas.

Para alterar o mapa : clique nos botões verdes com uma cruz preta para aumentar o zoom; no botão verde com uma pitada de zoom; ou nas setas verdes para mapas adjacentes.


METAR-TAF: